sensor_id;sensor_type;location;lat;lon;timestamp;temperature;humidity
12887;DHT22;6511;49.746;6.094;2023-05-29T00:00:29;12.90;99.90
12887;DHT22;6511;49.746;6.094;2023-05-29T00:02:55;12.80;99.90
12887;DHT22;6511;49.746;6.094;2023-05-29T00:05:20;12.70;99.90
12887;DHT22;6511;49.746;6.094;2023-05-29T00:07:46;12.60;99.90
12887;DHT22;6511;49.746;6.094;2023-05-29T00:10:11;12.40;99.90
12887;DHT22;6511;49.746;6.094;2023-05-29T00:12:38;12.50;99.90
12887;DHT22;6511;49.746;6.094;2023-05-29T00:15:03;12.50;99.90
12887;DHT22;6511;49.746;6.094;2023-05-29T00:17:29;12.60;99.90
12887;DHT22;6511;49.746;6.094;2023-05-29T00:19:57;12.50;99.90
12887;DHT22;6511;49.746;6.094;2023-05-29T00:22:24;12.50;99.90
12887;DHT22;6511;49.746;6.094;2023-05-29T00:24:50;12.50;99.90
12887;DHT22;6511;49.746;6.094;2023-05-29T00:27:16;12.50;99.90
12887;DHT22;6511;49.746;6.094;2023-05-29T00:29:41;12.50;99.90
12887;DHT22;6511;49.746;6.094;2023-05-29T00:32:07;12.50;99.90
12887;DHT22;6511;49.746;6.094;2023-05-29T00:34:32;12.50;99.90
12887;DHT22;6511;49.746;6.094;2023-05-29T00:36:58;12.30;99.90
12887;DHT22;6511;49.746;6.094;2023-05-29T00:39:24;12.30;99.90
12887;DHT22;6511;49.746;6.094;2023-05-29T00:41:49;12.60;99.90
12887;DHT22;6511;49.746;6.094;2023-05-29T00:44:20;12.90;99.90
12887;DHT22;6511;49.746;6.094;2023-05-29T00:46:49;13.00;99.90
12887;DHT22;6511;49.746;6.094;2023-05-29T00:49:16;13.20;99.90
12887;DHT22;6511;49.746;6.094;2023-05-29T00:51:42;13.30;99.90
12887;DHT22;6511;49.746;6.094;2023-05-29T00:54:07;13.30;99.90
12887;DHT22;6511;49.746;6.094;2023-05-29T00:56:35;13.20;99.90
12887;DHT22;6511;49.746;6.094;2023-05-29T00:59:01;12.80;99.90
12887;DHT22;6511;49.746;6.094;2023-05-29T01:01:26;12.60;99.90
12887;DHT22;6511;49.746;6.094;2023-05-29T01:03:53;12.90;99.90
12887;DHT22;6511;49.746;6.094;2023-05-29T01:06:20;12.90;99.90
12887;DHT22;6511;49.746;6.094;2023-05-29T01:08:46;13.00;99.90
12887;DHT22;6511;49.746;6.094;2023-05-29T01:13:43;12.90;99.90
12887;DHT22;6511;49.746;6.094;2023-05-29T01:23:59;12.20;99.90
12887;DHT22;6511;49.746;6.094;2023-05-29T01:29:06;12.80;99.90
12887;DHT22;6511;49.746;6.094;2023-05-29T01:31:32;13.00;99.90
12887;DHT22;6511;49.746;6.094;2023-05-29T01:33:58;12.90;99.90
12887;DHT22;6511;49.746;6.094;2023-05-29T01:36:25;13.00;99.90
12887;DHT22;6511;49.746;6.094;2023-05-29T01:38:52;13.00;99.90
12887;DHT22;6511;49.746;6.094;2023-05-29T01:41:18;12.90;99.90
12887;DHT22;6511;49.746;6.094;2023-05-29T01:43:44;12.60;99.90
12887;DHT22;6511;49.746;6.094;2023-05-29T01:46:10;12.50;99.90
12887;DHT22;6511;49.746;6.094;2023-05-29T01:48:36;12.20;99.90
12887;DHT22;6511;49.746;6.094;2023-05-29T01:51:01;12.00;99.90
12887;DHT22;6511;49.746;6.094;2023-05-29T01:53:27;11.90;99.90
12887;DHT22;6511;49.746;6.094;2023-05-29T01:55:52;11.90;99.90
12887;DHT22;6511;49.746;6.094;2023-05-29T01:58:19;11.70;99.90
12887;DHT22;6511;49.746;6.094;2023-05-29T02:00:45;11.50;99.90
12887;DHT22;6511;49.746;6.094;2023-05-29T02:03:11;11.50;99.90
12887;DHT22;6511;49.746;6.094;2023-05-29T02:05:36;11.40;99.90
12887;DHT22;6511;49.746;6.094;2023-05-29T02:08:02;11.50;99.90
12887;DHT22;6511;49.746;6.094;2023-05-29T02:10:27;11.60;99.90
12887;DHT22;6511;49.746;6.094;2023-05-29T02:12:53;11.80;99.90
12887;DHT22;6511;49.746;6.094;2023-05-29T02:15:18;12.00;99.90
12887;DHT22;6511;49.746;6.094;2023-05-29T02:17:44;11.80;99.90
12887;DHT22;6511;49.746;6.094;2023-05-29T02:20:09;11.70;99.90
12887;DHT22;6511;49.746;6.094;2023-05-29T02:22:36;11.40;99.90
12887;DHT22;6511;49.746;6.094;2023-05-29T02:25:01;11.30;99.90
12887;DHT22;6511;49.746;6.094;2023-05-29T02:27:27;11.30;99.90
12887;DHT22;6511;49.746;6.094;2023-05-29T02:29:52;11.30;99.90
12887;DHT22;6511;49.746;6.094;2023-05-29T02:32:18;11.30;99.90
12887;DHT22;6511;49.746;6.094;2023-05-29T02:34:43;11.40;99.90
12887;DHT22;6511;49.746;6.094;2023-05-29T02:37:09;11.20;99.90
12887;DHT22;6511;49.746;6.094;2023-05-29T02:39:35;11.10;99.90
12887;DHT22;6511;49.746;6.094;2023-05-29T02:42:00;11.10;99.90
12887;DHT22;6511;49.746;6.094;2023-05-29T02:44:26;11.20;99.90
12887;DHT22;6511;49.746;6.094;2023-05-29T02:46:51;11.20;99.90
12887;DHT22;6511;49.746;6.094;2023-05-29T02:49:17;11.10;99.90
12887;DHT22;6511;49.746;6.094;2023-05-29T02:51:42;11.00;99.90
12887;DHT22;6511;49.746;6.094;2023-05-29T02:54:08;11.00;99.90
12887;DHT22;6511;49.746;6.094;2023-05-29T02:56:33;11.00;99.90
12887;DHT22;6511;49.746;6.094;2023-05-29T02:58:59;11.00;99.90
12887;DHT22;6511;49.746;6.094;2023-05-29T03:01:25;11.00;99.90
12887;DHT22;6511;49.746;6.094;2023-05-29T03:03:51;10.90;99.90
12887;DHT22;6511;49.746;6.094;2023-05-29T03:06:16;10.80;99.90
12887;DHT22;6511;49.746;6.094;2023-05-29T03:08:43;10.90;99.90
12887;DHT22;6511;49.746;6.094;2023-05-29T03:11:13;10.90;99.90
12887;DHT22;6511;49.746;6.094;2023-05-29T03:13:40;10.80;99.90
12887;DHT22;6511;49.746;6.094;2023-05-29T03:16:06;11.00;99.90
12887;DHT22;6511;49.746;6.094;2023-05-29T03:18:33;10.80;99.90
12887;DHT22;6511;49.746;6.094;2023-05-29T03:20:59;10.70;99.90
12887;DHT22;6511;49.746;6.094;2023-05-29T03:23:24;10.70;99.90
12887;DHT22;6511;49.746;6.094;2023-05-29T03:25:50;10.60;99.90
12887;DHT22;6511;49.746;6.094;2023-05-29T03:28:15;10.60;99.90
12887;DHT22;6511;49.746;6.094;2023-05-29T03:30:41;10.60;99.90
12887;DHT22;6511;49.746;6.094;2023-05-29T03:33:06;10.70;99.90
12887;DHT22;6511;49.746;6.094;2023-05-29T03:35:32;10.70;99.90
12887;DHT22;6511;49.746;6.094;2023-05-29T03:37:58;10.70;99.90
12887;DHT22;6511;49.746;6.094;2023-05-29T03:40:23;10.70;99.90
12887;DHT22;6511;49.746;6.094;2023-05-29T03:42:49;10.80;99.90
12887;DHT22;6511;49.746;6.094;2023-05-29T03:45:14;10.90;99.90
12887;DHT22;6511;49.746;6.094;2023-05-29T03:47:40;10.80;99.90
12887;DHT22;6511;49.746;6.094;2023-05-29T03:50:05;10.80;99.90
12887;DHT22;6511;49.746;6.094;2023-05-29T03:52:31;10.80;99.90
12887;DHT22;6511;49.746;6.094;2023-05-29T03:54:57;10.80;99.90
12887;DHT22;6511;49.746;6.094;2023-05-29T03:57:22;10.90;99.90
12887;DHT22;6511;49.746;6.094;2023-05-29T03:59:48;10.90;99.90
12887;DHT22;6511;49.746;6.094;2023-05-29T04:02:13;10.90;99.90
12887;DHT22;6511;49.746;6.094;2023-05-29T04:04:39;10.90;99.90
12887;DHT22;6511;49.746;6.094;2023-05-29T04:07:05;10.80;99.90
12887;DHT22;6511;49.746;6.094;2023-05-29T04:09:33;11.10;99.90
12887;DHT22;6511;49.746;6.094;2023-05-29T04:11:59;11.10;99.90
12887;DHT22;6511;49.746;6.094;2023-05-29T04:14:27;11.00;99.90
12887;DHT22;6511;49.746;6.094;2023-05-29T04:16:53;11.10;99.90
12887;DHT22;6511;49.746;6.094;2023-05-29T04:19:18;11.10;99.90
12887;DHT22;6511;49.746;6.094;2023-05-29T04:21:44;11.00;99.90
12887;DHT22;6511;49.746;6.094;2023-05-29T04:24:09;11.20;99.90
12887;DHT22;6511;49.746;6.094;2023-05-29T04:26:36;11.20;99.90
12887;DHT22;6511;49.746;6.094;2023-05-29T04:29:06;10.90;99.90
12887;DHT22;6511;49.746;6.094;2023-05-29T04:31:32;11.00;99.90
12887;DHT22;6511;49.746;6.094;2023-05-29T04:33:58;11.00;99.90
12887;DHT22;6511;49.746;6.094;2023-05-29T04:36:26;10.90;99.90
12887;DHT22;6511;49.746;6.094;2023-05-29T04:38:54;10.80;99.90
12887;DHT22;6511;49.746;6.094;2023-05-29T04:41:20;11.10;99.90
12887;DHT22;6511;49.746;6.094;2023-05-29T04:43:49;11.40;99.90
12887;DHT22;6511;49.746;6.094;2023-05-29T04:46:15;11.60;99.90
12887;DHT22;6511;49.746;6.094;2023-05-29T04:48:40;11.90;99.90
12887;DHT22;6511;49.746;6.094;2023-05-29T04:51:09;12.00;99.90
12887;DHT22;6511;49.746;6.094;2023-05-29T04:53:39;12.10;99.90
12887;DHT22;6511;49.746;6.094;2023-05-29T04:56:08;12.20;99.90
12887;DHT22;6511;49.746;6.094;2023-05-29T04:58:35;12.30;99.90
12887;DHT22;6511;49.746;6.094;2023-05-29T05:01:00;12.30;99.90
12887;DHT22;6511;49.746;6.094;2023-05-29T05:03:28;12.40;99.90
12887;DHT22;6511;49.746;6.094;2023-05-29T05:05:54;12.50;99.90
12887;DHT22;6511;49.746;6.094;2023-05-29T05:08:19;12.60;99.90
12887;DHT22;6511;49.746;6.094;2023-05-29T05:10:45;12.70;99.90
12887;DHT22;6511;49.746;6.094;2023-05-29T05:13:10;12.70;99.90
12887;DHT22;6511;49.746;6.094;2023-05-29T05:15:37;12.90;99.90
12887;DHT22;6511;49.746;6.094;2023-05-29T05:18:03;12.90;99.90
12887;DHT22;6511;49.746;6.094;2023-05-29T05:20:28;13.00;99.90
12887;DHT22;6511;49.746;6.094;2023-05-29T05:22:54;13.00;99.90
12887;DHT22;6511;49.746;6.094;2023-05-29T05:25:21;13.10;99.90
12887;DHT22;6511;49.746;6.094;2023-05-29T05:27:46;13.20;99.90
12887;DHT22;6511;49.746;6.094;2023-05-29T05:30:12;13.40;99.90
12887;DHT22;6511;49.746;6.094;2023-05-29T05:32:38;13.40;99.90
12887;DHT22;6511;49.746;6.094;2023-05-29T05:35:03;13.40;99.90
12887;DHT22;6511;49.746;6.094;2023-05-29T05:37:29;13.50;99.90
12887;DHT22;6511;49.746;6.094;2023-05-29T05:39:55;13.50;99.90
12887;DHT22;6511;49.746;6.094;2023-05-29T05:42:22;13.60;99.90
12887;DHT22;6511;49.746;6.094;2023-05-29T05:44:48;13.70;99.90
12887;DHT22;6511;49.746;6.094;2023-05-29T05:47:13;13.70;99.90
12887;DHT22;6511;49.746;6.094;2023-05-29T05:49:39;13.80;99.90
12887;DHT22;6511;49.746;6.094;2023-05-29T05:52:04;13.80;99.90
12887;DHT22;6511;49.746;6.094;2023-05-29T05:54:30;13.90;99.90
12887;DHT22;6511;49.746;6.094;2023-05-29T05:56:55;13.90;99.90
12887;DHT22;6511;49.746;6.094;2023-05-29T05:59:21;14.00;99.90
12887;DHT22;6511;49.746;6.094;2023-05-29T06:01:46;14.00;99.90
12887;DHT22;6511;49.746;6.094;2023-05-29T06:04:12;14.10;99.90
12887;DHT22;6511;49.746;6.094;2023-05-29T06:06:37;14.20;99.90
12887;DHT22;6511;49.746;6.094;2023-05-29T06:09:03;14.20;99.90
12887;DHT22;6511;49.746;6.094;2023-05-29T06:11:30;14.20;99.90
12887;DHT22;6511;49.746;6.094;2023-05-29T06:13:55;14.30;99.90
12887;DHT22;6511;49.746;6.094;2023-05-29T06:16:21;14.30;99.90
12887;DHT22;6511;49.746;6.094;2023-05-29T06:18:46;14.40;99.90
12887;DHT22;6511;49.746;6.094;2023-05-29T06:21:12;14.50;99.90
12887;DHT22;6511;49.746;6.094;2023-05-29T06:23:37;14.50;99.90
12887;DHT22;6511;49.746;6.094;2023-05-29T06:26:03;14.50;99.90
12887;DHT22;6511;49.746;6.094;2023-05-29T06:28:29;14.70;99.90
12887;DHT22;6511;49.746;6.094;2023-05-29T06:30:55;14.70;99.90
12887;DHT22;6511;49.746;6.094;2023-05-29T06:33:20;14.80;99.90
12887;DHT22;6511;49.746;6.094;2023-05-29T06:35:47;14.80;99.90
12887;DHT22;6511;49.746;6.094;2023-05-29T06:38:16;14.90;99.90
12887;DHT22;6511;49.746;6.094;2023-05-29T06:40:41;14.90;99.90
12887;DHT22;6511;49.746;6.094;2023-05-29T06:43:07;15.00;99.90
12887;DHT22;6511;49.746;6.094;2023-05-29T06:45:34;15.10;99.90
12887;DHT22;6511;49.746;6.094;2023-05-29T06:48:00;15.10;99.90
12887;DHT22;6511;49.746;6.094;2023-05-29T06:50:25;15.30;99.90
12887;DHT22;6511;49.746;6.094;2023-05-29T06:52:51;15.30;99.90
12887;DHT22;6511;49.746;6.094;2023-05-29T06:55:16;15.40;99.90
12887;DHT22;6511;49.746;6.094;2023-05-29T06:57:42;15.60;99.90
12887;DHT22;6511;49.746;6.094;2023-05-29T07:00:07;15.50;99.90
12887;DHT22;6511;49.746;6.094;2023-05-29T07:02:35;15.60;99.90
12887;DHT22;6511;49.746;6.094;2023-05-29T07:05:01;15.70;99.90
12887;DHT22;6511;49.746;6.094;2023-05-29T07:07:26;15.70;99.90
12887;DHT22;6511;49.746;6.094;2023-05-29T07:09:52;15.70;99.90
12887;DHT22;6511;49.746;6.094;2023-05-29T07:12:17;15.80;99.90
12887;DHT22;6511;49.746;6.094;2023-05-29T07:14:43;15.90;99.90
12887;DHT22;6511;49.746;6.094;2023-05-29T07:17:09;16.00;99.90
12887;DHT22;6511;49.746;6.094;2023-05-29T07:19:35;16.10;99.90
12887;DHT22;6511;49.746;6.094;2023-05-29T07:22:00;16.10;99.90
12887;DHT22;6511;49.746;6.094;2023-05-29T07:24:26;16.10;99.90
12887;DHT22;6511;49.746;6.094;2023-05-29T07:26:52;16.10;99.90
12887;DHT22;6511;49.746;6.094;2023-05-29T07:29:17;16.10;99.90
12887;DHT22;6511;49.746;6.094;2023-05-29T07:31:46;16.20;99.90
12887;DHT22;6511;49.746;6.094;2023-05-29T07:34:11;16.30;99.90
12887;DHT22;6511;49.746;6.094;2023-05-29T07:36:49;16.40;99.90
12887;DHT22;6511;49.746;6.094;2023-05-29T07:39:20;16.50;99.90
12887;DHT22;6511;49.746;6.094;2023-05-29T07:41:46;16.60;99.90
12887;DHT22;6511;49.746;6.094;2023-05-29T07:44:11;16.60;99.90
12887;DHT22;6511;49.746;6.094;2023-05-29T07:46:37;16.70;99.90
12887;DHT22;6511;49.746;6.094;2023-05-29T07:49:02;16.70;99.90
12887;DHT22;6511;49.746;6.094;2023-05-29T07:51:28;17.00;99.90
12887;DHT22;6511;49.746;6.094;2023-05-29T07:53:53;17.00;99.90
12887;DHT22;6511;49.746;6.094;2023-05-29T07:56:19;17.20;99.90
12887;DHT22;6511;49.746;6.094;2023-05-29T07:58:44;17.20;99.90
12887;DHT22;6511;49.746;6.094;2023-05-29T08:01:10;17.20;99.90
12887;DHT22;6511;49.746;6.094;2023-05-29T08:03:36;17.30;99.90
12887;DHT22;6511;49.746;6.094;2023-05-29T08:06:02;17.30;99.90
12887;DHT22;6511;49.746;6.094;2023-05-29T08:08:28;17.20;99.90
12887;DHT22;6511;49.746;6.094;2023-05-29T08:10:53;17.50;99.90
12887;DHT22;6511;49.746;6.094;2023-05-29T08:13:19;17.50;99.90
12887;DHT22;6511;49.746;6.094;2023-05-29T08:15:44;17.50;99.90
12887;DHT22;6511;49.746;6.094;2023-05-29T08:18:10;17.50;99.90
12887;DHT22;6511;49.746;6.094;2023-05-29T08:20:36;17.70;99.90
12887;DHT22;6511;49.746;6.094;2023-05-29T08:23:01;17.70;99.90
12887;DHT22;6511;49.746;6.094;2023-05-29T08:25:27;17.70;99.90
12887;DHT22;6511;49.746;6.094;2023-05-29T08:27:52;17.70;99.90
12887;DHT22;6511;49.746;6.094;2023-05-29T08:30:18;17.80;99.90
12887;DHT22;6511;49.746;6.094;2023-05-29T08:32:44;17.80;99.90
12887;DHT22;6511;49.746;6.094;2023-05-29T08:35:09;17.90;99.90
12887;DHT22;6511;49.746;6.094;2023-05-29T08:37:34;18.00;99.90
12887;DHT22;6511;49.746;6.094;2023-05-29T08:40:00;18.10;99.90
12887;DHT22;6511;49.746;6.094;2023-05-29T08:42:29;18.20;99.90
12887;DHT22;6511;49.746;6.094;2023-05-29T08:44:55;18.30;99.90
12887;DHT22;6511;49.746;6.094;2023-05-29T08:47:23;18.40;99.90
12887;DHT22;6511;49.746;6.094;2023-05-29T08:49:52;18.30;99.90
12887;DHT22;6511;49.746;6.094;2023-05-29T08:52:19;18.30;99.90
12887;DHT22;6511;49.746;6.094;2023-05-29T08:54:46;18.50;99.90
12887;DHT22;6511;49.746;6.094;2023-05-29T08:57:12;18.40;99.90
12887;DHT22;6511;49.746;6.094;2023-05-29T08:59:39;18.60;99.90
12887;DHT22;6511;49.746;6.094;2023-05-29T09:02:05;18.60;99.90
12887;DHT22;6511;49.746;6.094;2023-05-29T09:04:31;18.70;99.90
12887;DHT22;6511;49.746;6.094;2023-05-29T09:06:57;18.80;99.90
12887;DHT22;6511;49.746;6.094;2023-05-29T09:09:24;18.80;99.90
12887;DHT22;6511;49.746;6.094;2023-05-29T09:11:51;19.00;99.90
12887;DHT22;6511;49.746;6.094;2023-05-29T09:17:13;18.80;99.90
12887;DHT22;6511;49.746;6.094;2023-05-29T09:19:40;19.00;99.90
12887;DHT22;6511;49.746;6.094;2023-05-29T09:22:07;19.10;99.90
12887;DHT22;6511;49.746;6.094;2023-05-29T09:24:33;19.00;99.90
12887;DHT22;6511;49.746;6.094;2023-05-29T09:26:59;19.00;99.90
12887;DHT22;6511;49.746;6.094;2023-05-29T09:29:26;19.30;99.90
12887;DHT22;6511;49.746;6.094;2023-05-29T09:31:51;19.30;99.90
12887;DHT22;6511;49.746;6.094;2023-05-29T09:34:17;19.40;99.90
12887;DHT22;6511;49.746;6.094;2023-05-29T09:36:42;19.30;99.90
12887;DHT22;6511;49.746;6.094;2023-05-29T09:39:08;19.50;99.90
12887;DHT22;6511;49.746;6.094;2023-05-29T09:41:42;19.40;99.90
12887;DHT22;6511;49.746;6.094;2023-05-29T09:44:07;19.40;99.90
12887;DHT22;6511;49.746;6.094;2023-05-29T09:46:36;19.90;99.90
12887;DHT22;6511;49.746;6.094;2023-05-29T09:49:01;20.10;99.90
12887;DHT22;6511;49.746;6.094;2023-05-29T09:51:28;20.30;99.90
12887;DHT22;6511;49.746;6.094;2023-05-29T09:53:55;20.10;99.90
12887;DHT22;6511;49.746;6.094;2023-05-29T09:56:26;20.10;99.90
12887;DHT22;6511;49.746;6.094;2023-05-29T09:58:53;20.20;99.90
12887;DHT22;6511;49.746;6.094;2023-05-29T10:01:19;20.20;99.90
12887;DHT22;6511;49.746;6.094;2023-05-29T10:03:44;20.10;99.90
12887;DHT22;6511;49.746;6.094;2023-05-29T10:06:10;20.30;99.90
12887;DHT22;6511;49.746;6.094;2023-05-29T10:08:40;20.20;99.90
12887;DHT22;6511;49.746;6.094;2023-05-29T10:11:10;20.20;99.90
12887;DHT22;6511;49.746;6.094;2023-05-29T10:13:41;20.40;99.90
12887;DHT22;6511;49.746;6.094;2023-05-29T10:16:07;20.60;99.90
12887;DHT22;6511;49.746;6.094;2023-05-29T10:18:42;20.80;99.90
12887;DHT22;6511;49.746;6.094;2023-05-29T10:21:08;20.70;99.90
12887;DHT22;6511;49.746;6.094;2023-05-29T10:23:36;20.60;99.90
12887;DHT22;6511;49.746;6.094;2023-05-29T10:26:12;20.60;99.90
12887;DHT22;6511;49.746;6.094;2023-05-29T10:28:41;20.60;99.90
12887;DHT22;6511;49.746;6.094;2023-05-29T10:31:09;20.60;99.90
12887;DHT22;6511;49.746;6.094;2023-05-29T10:36:20;20.90;99.90
12887;DHT22;6511;49.746;6.094;2023-05-29T10:38:49;21.10;99.90
12887;DHT22;6511;49.746;6.094;2023-05-29T10:41:33;21.10;99.90
12887;DHT22;6511;49.746;6.094;2023-05-29T10:43:59;21.00;99.90
12887;DHT22;6511;49.746;6.094;2023-05-29T10:49:17;21.00;99.90
12887;DHT22;6511;49.746;6.094;2023-05-29T10:51:42;21.10;99.90
12887;DHT22;6511;49.746;6.094;2023-05-29T10:54:09;21.30;99.90
12887;DHT22;6511;49.746;6.094;2023-05-29T10:56:35;21.50;99.90
12887;DHT22;6511;49.746;6.094;2023-05-29T10:59:00;21.60;99.90
12887;DHT22;6511;49.746;6.094;2023-05-29T11:01:29;21.40;99.90
12887;DHT22;6511;49.746;6.094;2023-05-29T11:06:43;21.30;99.90
12887;DHT22;6511;49.746;6.094;2023-05-29T11:09:29;21.30;99.90
12887;DHT22;6511;49.746;6.094;2023-05-29T11:15:03;21.60;99.90
12887;DHT22;6511;49.746;6.094;2023-05-29T11:17:30;21.50;99.90
12887;DHT22;6511;49.746;6.094;2023-05-29T11:19:56;21.60;99.90
12887;DHT22;6511;49.746;6.094;2023-05-29T11:22:23;21.90;99.90
12887;DHT22;6511;49.746;6.094;2023-05-29T11:24:52;22.00;99.90
12887;DHT22;6511;49.746;6.094;2023-05-29T11:27:18;22.10;99.90
12887;DHT22;6511;49.746;6.094;2023-05-29T11:29:44;22.30;99.90
12887;DHT22;6511;49.746;6.094;2023-05-29T11:32:12;22.20;99.90
12887;DHT22;6511;49.746;6.094;2023-05-29T11:34:40;22.20;99.90
12887;DHT22;6511;49.746;6.094;2023-05-29T11:37:06;22.20;99.90
12887;DHT22;6511;49.746;6.094;2023-05-29T11:39:35;22.30;99.90
12887;DHT22;6511;49.746;6.094;2023-05-29T11:42:01;22.30;99.90
12887;DHT22;6511;49.746;6.094;2023-05-29T11:44:27;22.10;99.90
12887;DHT22;6511;49.746;6.094;2023-05-29T11:47:02;22.00;99.90
12887;DHT22;6511;49.746;6.094;2023-05-29T11:49:28;22.10;99.90
12887;DHT22;6511;49.746;6.094;2023-05-29T11:51:54;22.40;99.90
12887;DHT22;6511;49.746;6.094;2023-05-29T11:54:30;22.40;99.90
12887;DHT22;6511;49.746;6.094;2023-05-29T11:56:55;22.70;99.90
12887;DHT22;6511;49.746;6.094;2023-05-29T11:59:21;22.70;99.90
12887;DHT22;6511;49.746;6.094;2023-05-29T12:01:46;22.70;99.90
12887;DHT22;6511;49.746;6.094;2023-05-29T12:04:14;22.70;99.90
12887;DHT22;6511;49.746;6.094;2023-05-29T12:06:40;22.70;99.90
12887;DHT22;6511;49.746;6.094;2023-05-29T12:09:07;22.80;99.90
12887;DHT22;6511;49.746;6.094;2023-05-29T12:11:34;22.80;99.90
12887;DHT22;6511;49.746;6.094;2023-05-29T12:14:00;23.10;99.90
12887;DHT22;6511;49.746;6.094;2023-05-29T12:16:30;22.90;99.90
12887;DHT22;6511;49.746;6.094;2023-05-29T12:18:56;23.10;99.90
12887;DHT22;6511;49.746;6.094;2023-05-29T12:21:21;22.80;99.90
12887;DHT22;6511;49.746;6.094;2023-05-29T12:23:48;22.90;99.90
12887;DHT22;6511;49.746;6.094;2023-05-29T12:26:13;23.00;99.90
12887;DHT22;6511;49.746;6.094;2023-05-29T12:28:47;23.20;99.90
12887;DHT22;6511;49.746;6.094;2023-05-29T12:31:13;23.20;99.90
12887;DHT22;6511;49.746;6.094;2023-05-29T12:33:42;23.10;99.90
12887;DHT22;6511;49.746;6.094;2023-05-29T12:36:09;23.20;99.90
12887;DHT22;6511;49.746;6.094;2023-05-29T12:38:45;23.20;99.90
12887;DHT22;6511;49.746;6.094;2023-05-29T12:41:21;23.20;99.90
12887;DHT22;6511;49.746;6.094;2023-05-29T12:43:46;22.90;99.90
12887;DHT22;6511;49.746;6.094;2023-05-29T12:46:12;23.20;99.90
12887;DHT22;6511;49.746;6.094;2023-05-29T12:48:38;23.10;99.90
12887;DHT22;6511;49.746;6.094;2023-05-29T12:51:04;23.10;99.90
12887;DHT22;6511;49.746;6.094;2023-05-29T12:53:30;23.30;99.90
12887;DHT22;6511;49.746;6.094;2023-05-29T12:55:55;23.40;99.90
12887;DHT22;6511;49.746;6.094;2023-05-29T12:58:22;23.50;99.90
12887;DHT22;6511;49.746;6.094;2023-05-29T13:00:52;23.20;99.90
12887;DHT22;6511;49.746;6.094;2023-05-29T13:03:21;23.30;99.90
12887;DHT22;6511;49.746;6.094;2023-05-29T13:05:49;23.20;99.90
12887;DHT22;6511;49.746;6.094;2023-05-29T13:08:15;23.30;99.90
12887;DHT22;6511;49.746;6.094;2023-05-29T13:10:40;23.10;99.90
12887;DHT22;6511;49.746;6.094;2023-05-29T13:13:06;23.10;99.90
12887;DHT22;6511;49.746;6.094;2023-05-29T13:15:31;23.10;99.90
12887;DHT22;6511;49.746;6.094;2023-05-29T13:17:58;23.00;99.90
12887;DHT22;6511;49.746;6.094;2023-05-29T13:20:24;23.20;99.90
12887;DHT22;6511;49.746;6.094;2023-05-29T13:22:50;23.50;99.90
12887;DHT22;6511;49.746;6.094;2023-05-29T13:25:15;23.40;99.90
12887;DHT22;6511;49.746;6.094;2023-05-29T13:27:45;23.20;99.90
12887;DHT22;6511;49.746;6.094;2023-05-29T13:30:11;23.50;99.90
12887;DHT22;6511;49.746;6.094;2023-05-29T13:32:36;23.40;99.90
12887;DHT22;6511;49.746;6.094;2023-05-29T13:35:02;23.40;99.90
12887;DHT22;6511;49.746;6.094;2023-05-29T13:37:28;23.50;99.90
12887;DHT22;6511;49.746;6.094;2023-05-29T13:39:54;23.50;99.90
12887;DHT22;6511;49.746;6.094;2023-05-29T13:42:19;23.50;99.90
12887;DHT22;6511;49.746;6.094;2023-05-29T13:44:46;23.80;99.90
12887;DHT22;6511;49.746;6.094;2023-05-29T13:47:11;23.70;99.90
12887;DHT22;6511;49.746;6.094;2023-05-29T13:49:37;23.60;99.90
12887;DHT22;6511;49.746;6.094;2023-05-29T13:52:03;23.50;99.90
12887;DHT22;6511;49.746;6.094;2023-05-29T13:54:28;23.50;99.90
12887;DHT22;6511;49.746;6.094;2023-05-29T13:56:56;23.70;99.90
12887;DHT22;6511;49.746;6.094;2023-05-29T13:59:23;23.70;99.90
12887;DHT22;6511;49.746;6.094;2023-05-29T14:01:49;23.80;99.90
12887;DHT22;6511;49.746;6.094;2023-05-29T14:04:14;23.60;99.90
12887;DHT22;6511;49.746;6.094;2023-05-29T14:06:40;23.60;99.90
12887;DHT22;6511;49.746;6.094;2023-05-29T14:09:05;23.80;99.90
12887;DHT22;6511;49.746;6.094;2023-05-29T14:11:38;23.70;99.90
12887;DHT22;6511;49.746;6.094;2023-05-29T14:14:03;23.70;99.90
12887;DHT22;6511;49.746;6.094;2023-05-29T14:16:29;23.60;99.90
12887;DHT22;6511;49.746;6.094;2023-05-29T14:18:55;23.60;99.90
12887;DHT22;6511;49.746;6.094;2023-05-29T14:21:20;23.70;99.90
12887;DHT22;6511;49.746;6.094;2023-05-29T14:23:46;23.80;99.90
12887;DHT22;6511;49.746;6.094;2023-05-29T14:26:11;24.00;99.90
12887;DHT22;6511;49.746;6.094;2023-05-29T14:28:37;23.80;99.90
12887;DHT22;6511;49.746;6.094;2023-05-29T14:31:04;23.90;99.90
12887;DHT22;6511;49.746;6.094;2023-05-29T14:33:29;23.70;99.90
12887;DHT22;6511;49.746;6.094;2023-05-29T14:35:55;23.80;99.90
12887;DHT22;6511;49.746;6.094;2023-05-29T14:38:20;24.00;99.90
12887;DHT22;6511;49.746;6.094;2023-05-29T14:40:46;24.10;99.90
12887;DHT22;6511;49.746;6.094;2023-05-29T14:43:12;23.60;99.90
12887;DHT22;6511;49.746;6.094;2023-05-29T14:45:37;23.50;99.90
12887;DHT22;6511;49.746;6.094;2023-05-29T14:48:03;23.50;99.90
12887;DHT22;6511;49.746;6.094;2023-05-29T14:50:28;23.40;99.90
12887;DHT22;6511;49.746;6.094;2023-05-29T14:52:54;23.40;99.90
12887;DHT22;6511;49.746;6.094;2023-05-29T14:55:19;23.30;99.90
12887;DHT22;6511;49.746;6.094;2023-05-29T14:57:45;23.10;99.90
12887;DHT22;6511;49.746;6.094;2023-05-29T15:00:10;23.20;99.90
12887;DHT22;6511;49.746;6.094;2023-05-29T15:02:36;23.20;99.90
12887;DHT22;6511;49.746;6.094;2023-05-29T15:05:05;23.10;99.90
12887;DHT22;6511;49.746;6.094;2023-05-29T15:07:31;23.30;99.90
12887;DHT22;6511;49.746;6.094;2023-05-29T15:09:59;23.50;99.90
12887;DHT22;6511;49.746;6.094;2023-05-29T15:12:25;23.80;99.90
12887;DHT22;6511;49.746;6.094;2023-05-29T15:14:50;23.80;99.90
12887;DHT22;6511;49.746;6.094;2023-05-29T15:17:16;23.60;99.90
12887;DHT22;6511;49.746;6.094;2023-05-29T15:19:41;23.50;99.90
12887;DHT22;6511;49.746;6.094;2023-05-29T15:22:07;23.40;99.90
12887;DHT22;6511;49.746;6.094;2023-05-29T15:24:33;23.10;99.90
12887;DHT22;6511;49.746;6.094;2023-05-29T15:26:58;23.00;99.90
12887;DHT22;6511;49.746;6.094;2023-05-29T15:29:24;23.00;99.90
12887;DHT22;6511;49.746;6.094;2023-05-29T15:31:49;23.10;99.90
12887;DHT22;6511;49.746;6.094;2023-05-29T15:34:15;22.90;99.90
12887;DHT22;6511;49.746;6.094;2023-05-29T15:36:40;23.00;99.90
12887;DHT22;6511;49.746;6.094;2023-05-29T15:39:06;22.80;99.90
12887;DHT22;6511;49.746;6.094;2023-05-29T15:41:32;22.70;99.90
12887;DHT22;6511;49.746;6.094;2023-05-29T15:43:58;22.60;99.90
12887;DHT22;6511;49.746;6.094;2023-05-29T15:46:26;22.50;99.90
12887;DHT22;6511;49.746;6.094;2023-05-29T15:48:52;22.40;99.90
12887;DHT22;6511;49.746;6.094;2023-05-29T15:51:18;22.40;99.90
12887;DHT22;6511;49.746;6.094;2023-05-29T15:53:43;22.50;99.90
12887;DHT22;6511;49.746;6.094;2023-05-29T15:56:09;22.50;99.90
12887;DHT22;6511;49.746;6.094;2023-05-29T15:58:34;22.50;99.90
12887;DHT22;6511;49.746;6.094;2023-05-29T16:01:01;22.50;99.90
12887;DHT22;6511;49.746;6.094;2023-05-29T16:03:28;22.50;99.90
12887;DHT22;6511;49.746;6.094;2023-05-29T16:05:53;22.50;99.90